Time;durP1;ratioP1;P1;durP2;ratioP2;P2;SDS_P1;SDS_P2;PMS_P1;PMS_P2;Temp;Humidity;BMP_temperature;BMP_pressure;BME280_temperature;BME280_humidity;BME280_pressure;Samples;Min_cycle;Max_cycle;Signal;HPM_P1;HPM_P2
2024/01/06 00:00:56;;;;;;;3.47;1.88;;;;;;;4.15;100.00;91756.94;2113872;28;20031;-80
2024/01/06 00:01:57;;;;;;;3.45;1.85;;;;;;;4.13;100.00;91757.34;2113729;28;20035;-79
2024/01/06 00:02:58;;;;;;;2.65;1.65;;;;;;;4.00;100.00;91757.22;2105318;28;20056;-81
2024/01/06 00:03:59;;;;;;;5.65;2.20;;;;;;;3.88;100.00;91757.06;2096858;28;20032;-80
2024/01/06 00:05:01;;;;;;;3.63;2.08;;;;;;;3.85;100.00;91752.59;2105173;28;20024;-81
2024/01/06 00:06:02;;;;;;;4.03;1.80;;;;;;;3.88;100.00;91757.06;2107663;28;20028;-80
2024/01/06 00:07:03;;;;;;;4.53;2.08;;;;;;;3.76;100.00;91756.50;2113187;28;20485;-81
2024/01/06 00:08:05;;;;;;;5.00;2.50;;;;;;;3.85;100.00;91753.34;2105046;28;20575;-80
2024/01/06 00:09:06;;;;;;;5.00;1.90;;;;;;;3.88;100.00;91757.06;2089824;28;20429;-80
2024/01/06 00:10:07;;;;;;;3.72;1.73;;;;;;;3.78;100.00;91758.78;2100426;28;20546;-79
2024/01/06 00:11:09;;;;;;;5.97;2.28;;;;;;;3.83;100.00;91760.94;2114345;28;20122;-81
2024/01/06 00:12:10;;;;;;;4.15;2.05;;;;;;;3.75;100.00;91762.97;2101169;28;20028;-80
2024/01/06 00:13:11;;;;;;;6.85;2.20;;;;;;;3.79;100.00;91762.91;2101178;28;20028;-78
2024/01/06 00:14:12;;;;;;;5.50;1.90;;;;;;;3.91;100.00;91767.59;2093110;28;20049;-79
2024/01/06 00:15:13;;;;;;;6.13;1.90;;;;;;;3.84;100.00;91772.25;2101403;28;20063;-80
2024/01/06 00:16:18;;;;;;;5.15;1.80;;;;;;;3.82;100.00;91767.38;2113816;28;20095;-81
2024/01/06 00:17:20;;;;;;;3.25;1.95;;;;;;;3.94;100.00;91774.69;2103215;28;20024;-82
2024/01/06 00:18:21;;;;;;;4.82;1.90;;;;;;;3.96;100.00;91769.75;2111909;28;20027;-82
2024/01/06 00:19:23;;;;;;;2.75;1.50;;;;;;;3.96;100.00;91771.66;2104572;28;20027;-82
2024/01/06 00:20:24;;;;;;;2.22;1.52;;;;;;;3.82;100.00;91771.91;2089880;28;20029;-81
2024/01/06 00:21:25;;;;;;;4.07;1.92;;;;;;;3.81;100.00;91779.09;2088806;28;20028;-79
2024/01/06 00:22:26;;;;;;;4.22;1.60;;;;;;;3.75;100.00;91775.44;2105748;28;20016;-80
2024/01/06 00:23:27;;;;;;;4.63;2.22;;;;;;;3.78;100.00;91775.38;2112149;28;20527;-80
2024/01/06 00:24:28;;;;;;;3.42;1.70;;;;;;;3.72;100.00;91776.97;2097865;28;20028;-79
2024/01/06 00:25:31;;;;;;;2.67;2.03;;;;;;;3.78;100.00;91779.91;2097964;28;20030;-81
2024/01/06 00:26:32;;;;;;;5.13;1.80;;;;;;;3.72;100.00;91778.88;2114527;28;20015;-80
2024/01/06 00:27:33;;;;;;;2.90;1.73;;;;;;;4.05;100.00;91771.84;2114643;28;20019;-80
2024/01/06 00:28:35;;;;;;;1.85;1.40;;;;;;;4.04;100.00;91775.66;2114350;28;20066;-82
2024/01/06 00:29:36;;;;;;;3.03;1.55;;;;;;;4.07;100.00;91782.00;2097034;28;20417;-80
2024/01/06 00:30:36;;;;;;;5.32;1.88;;;;;;;4.07;100.00;91774.09;2096690;28;20063;-79
2024/01/06 00:31:38;;;;;;;5.20;2.03;;;;;;;4.12;100.00;91778.88;2104849;28;20059;-79
2024/01/06 00:32:39;;;;;;;4.03;1.35;;;;;;;4.01;100.00;91774.56;2113312;28;20020;-80
2024/01/06 00:33:40;;;;;;;3.05;1.50;;;;;;;3.93;100.00;91777.75;2114343;27;20036;-79
2024/01/06 00:34:41;;;;;;;2.58;1.60;;;;;;;3.99;100.00;91779.50;2114328;28;20028;-79
2024/01/06 00:35:42;;;;;;;3.78;1.60;;;;;;;3.95;100.00;91778.84;2105524;28;20131;-80
2024/01/06 00:36:44;;;;;;;3.65;1.65;;;;;;;3.91;100.00;91778.16;2097242;28;20032;-80
2024/01/06 00:37:47;;;;;;;5.03;1.85;;;;;;;4.15;100.00;91781.47;2109541;28;20046;-79
2024/01/06 00:38:51;;;;;;;6.95;1.75;;;;;;;4.16;100.00;91785.59;2104946;28;20146;-81
2024/01/06 00:39:52;;;;;;;3.60;1.35;;;;;;;4.04;100.00;91775.66;2102759;28;20034;-80
2024/01/06 00:40:53;;;;;;;3.83;1.48;;;;;;;4.09;100.00;91788.41;2109222;28;20401;-81
2024/01/06 00:41:54;;;;;;;2.13;1.50;;;;;;;4.01;100.00;91785.13;2105225;28;20360;-79
2024/01/06 00:42:56;;;;;;;4.50;1.73;;;;;;;4.00;100.00;91785.56;2104938;28;20117;-77
2024/01/06 00:43:57;;;;;;;1.95;1.70;;;;;;;3.95;100.00;91783.34;2100508;28;20099;-79
2024/01/06 00:44:58;;;;;;;3.97;1.50;;;;;;;4.03;100.00;91788.09;2082770;28;20091;-79
2024/01/06 00:45:59;;;;;;;5.20;1.85;;;;;;;4.00;100.00;91786.28;2080225;28;20071;-79
2024/01/06 00:47:01;;;;;;;3.38;1.60;;;;;;;3.88;100.00;91788.78;2091091;28;20113;-78
2024/01/06 00:48:02;;;;;;;2.53;1.80;;;;;;;3.79;100.00;91786.69;2098538;28;20028;-82
2024/01/06 00:49:03;;;;;;;2.40;1.50;;;;;;;3.87;100.00;91784.66;2103094;28;20039;-81
2024/01/06 00:50:04;;;;;;;2.55;1.60;;;;;;;3.87;100.00;91788.06;2104838;28;20423;-79
2024/01/06 00:51:06;;;;;;;2.08;1.65;;;;;;;3.92;100.00;91781.53;2113197;28;20024;-79
2024/01/06 00:52:08;;;;;;;4.13;1.60;;;;;;;3.89;100.00;91791.03;2105104;28;20063;-79
2024/01/06 00:53:09;;;;;;;5.07;1.85;;;;;;;3.94;100.00;91801.13;2096870;28;20031;-80
2024/01/06 00:54:10;;;;;;;4.32;1.73;;;;;;;3.86;100.00;91794.47;2096453;28;20082;-79
2024/01/06 00:55:11;;;;;;;3.40;1.70;;;;;;;4.02;100.00;91794.56;2104265;28;20501;-80
2024/01/06 00:56:13;;;;;;;3.25;1.67;;;;;;;3.87;100.00;91795.97;2112905;28;20020;-78
2024/01/06 00:57:14;;;;;;;6.82;1.92;;;;;;;3.92;100.00;91790.22;2097136;28;20028;-80
2024/01/06 00:58:15;;;;;;;5.15;1.70;;;;;;;3.88;100.00;91799.38;2096695;28;20077;-79
2024/01/06 00:59:16;;;;;;;4.97;1.85;;;;;;;3.87;100.00;91798.63;2110097;28;20097;-81
2024/01/06 01:00:17;;;;;;;2.55;1.60;;;;;;;4.05;100.00;91798.28;2113743;28;20038;-80
2024/01/06 01:01:18;;;;;;;4.82;1.63;;;;;;;3.92;100.00;91803.44;2112814;28;20037;-80
2024/01/06 01:02:19;;;;;;;6.22;1.80;;;;;;;3.97;100.00;91799.56;2096182;28;20025;-78
2024/01/06 01:03:20;;;;;;;3.80;1.48;;;;;;;4.04;100.00;91800.19;2104413;28;20066;-78
2024/01/06 01:04:21;;;;;;;7.63;2.15;;;;;;;4.04;100.00;91802.84;2104805;28;20019;-78
2024/01/06 01:05:22;;;;;;;3.95;1.55;;;;;;;3.98;100.00;91812.38;2095567;28;20077;-81
2024/01/06 01:06:23;;;;;;;4.43;1.55;;;;;;;4.01;100.00;91802.91;2110329;28;20496;-79
2024/01/06 01:07:24;;;;;;;3.97;1.70;;;;;;;4.10;100.00;91810.28;2111649;28;20361;-78
2024/01/06 01:08:25;;;;;;;3.45;1.83;;;;;;;4.09;100.00;91814.09;2113139;28;20031;-80
2024/01/06 01:09:26;;;;;;;6.38;1.60;;;;;;;3.99;100.00;91810.47;2096817;28;20500;-80
2024/01/06 01:10:27;;;;;;;2.17;1.33;;;;;;;4.07;100.00;91811.09;2088245;28;20039;-80
2024/01/06 01:11:28;;;;;;;4.45;1.40;;;;;;;4.02;100.00;91807.03;2099227;28;20105;-80
2024/01/06 01:12:29;;;;;;;2.33;1.20;;;;;;;3.90;100.00;91818.19;2110652;28;20019;-81
2024/01/06 01:13:30;;;;;;;1.75;1.23;;;;;;;3.93;100.00;91812.84;2104760;28;20185;-78
2024/01/06 01:14:31;;;;;;;3.75;1.42;;;;;;;3.93;100.00;91823.44;2104913;28;20028;-79
2024/01/06 01:15:32;;;;;;;4.80;1.35;;;;;;;3.72;100.00;91824.53;2110212;28;20046;-80
2024/01/06 01:16:33;;;;;;;3.70;1.42;;;;;;;3.78;100.00;91822.94;2096947;28;20020;-79
2024/01/06 01:17:34;;;;;;;2.58;1.38;;;;;;;3.87;100.00;91819.78;2080049;28;20048;-77
2024/01/06 01:18:35;;;;;;;2.33;1.45;;;;;;;3.82;100.00;91816.81;2102048;28;20571;-79
2024/01/06 01:19:36;;;;;;;3.80;1.25;;;;;;;3.88;100.00;91815.22;2095143;28;20073;-78
2024/01/06 01:20:37;;;;;;;2.60;1.20;;;;;;;3.88;100.00;91820.50;2104512;28;20024;-79
2024/01/06 01:21:38;;;;;;;3.60;1.60;;;;;;;3.85;100.00;91816.03;2112932;28;20503;-81
2024/01/06 01:22:40;;;;;;;2.53;1.63;;;;;;;3.94;100.00;91816.97;2104606;28;20020;-79
2024/01/06 01:23:43;;;;;;;3.40;1.98;;;;;;;3.97;100.00;91816.19;2095722;28;20028;-80
2024/01/06 01:24:44;;;;;;;2.63;1.30;;;;;;;4.21;100.00;91818.75;2091619;28;20072;-80
2024/01/06 01:25:45;;;;;;;3.05;1.42;;;;;;;4.21;100.00;91819.50;2096269;28;20032;-82
2024/01/06 01:26:46;;;;;;;3.55;1.50;;;;;;;4.08;100.00;91823.91;2102425;28;20179;-80
2024/01/06 01:27:47;;;;;;;2.22;1.33;;;;;;;3.94;100.00;91832.84;2112289;28;20108;-79
2024/01/06 01:28:48;;;;;;;4.18;1.60;;;;;;;4.00;100.00;91833.88;2105170;28;20483;-79
2024/01/06 01:29:54;;;;;;;3.85;1.52;;;;;;;3.90;100.00;91834.06;2112665;28;20373;-80
2024/01/06 01:30:55;;;;;;;2.60;1.40;;;;;;;3.94;100.00;91846.06;2112577;28;20109;-80
2024/01/06 01:31:56;;;;;;;6.40;2.00;;;;;;;3.73;100.00;91843.78;2112272;28;20117;-80
2024/01/06 01:32:58;;;;;;;4.05;1.40;;;;;;;3.93;100.00;91849.13;2112911;28;20031;-80
2024/01/06 01:33:59;;;;;;;4.93;1.88;;;;;;;4.09;100.00;91838.63;2096204;28;20029;-79
2024/01/06 01:35:00;;;;;;;2.53;1.25;;;;;;;4.00;100.00;91846.34;2096018;28;20032;-79
2024/01/06 01:36:01;;;;;;;4.35;1.50;;;;;;;4.12;100.00;91845.00;2110167;28;20047;-79
2024/01/06 01:37:02;;;;;;;5.93;1.50;;;;;;;4.10;100.00;91844.66;2112827;28;20457;-81
2024/01/06 01:38:03;;;;;;;4.72;1.42;;;;;;;4.06;100.00;91846.63;2113194;28;20042;-78
2024/01/06 01:39:04;;;;;;;3.17;1.48;;;;;;;4.01;100.00;91850.50;2104490;28;20880;-77
2024/01/06 01:40:06;;;;;;;6.97;1.55;;;;;;;4.14;100.00;91845.34;2084828;28;20797;-79
2024/01/06 01:41:07;;;;;;;5.43;1.38;;;;;;;4.02;100.00;91851.97;2091490;28;20028;-79
2024/01/06 01:42:08;;;;;;;4.07;1.50;;;;;;;4.28;100.00;91848.47;2109493;28;20051;-80
2024/01/06 01:43:18;;;;;;;7.25;1.70;;;;;;;4.27;100.00;91859.47;2104282;28;20023;-81
2024/01/06 01:44:19;;;;;;;3.35;1.15;;;;;;;4.51;100.00;91852.94;2101939;28;20019;-80
2024/01/06 01:45:20;;;;;;;3.13;1.30;;;;;;;4.27;100.00;91854.19;2112749;28;20091;-79
2024/01/06 01:46:21;;;;;;;3.95;1.30;;;;;;;4.20;100.00;91849.75;2108570;28;20031;-79
2024/01/06 01:47:23;;;;;;;3.10;1.50;;;;;;;4.08;100.00;91854.88;2092102;28;20082;-79
2024/01/06 01:48:25;;;;;;;3.92;1.38;;;;;;;3.91;100.00;91857.47;2087815;28;20024;-79
2024/01/06 01:49:26;;;;;;;3.08;1.48;;;;;;;3.92;100.00;91856.31;2104302;28;20024;-79
2024/01/06 01:50:30;;;;;;;3.58;1.30;;;;;;;3.91;100.00;91859.34;2096067;28;20404;-80
2024/01/06 01:53:34;;;;;;;3.53;1.20;;;;;;;3.92;100.00;91863.50;2111126;28;20115;-78
2024/01/06 01:56:35;;;;;;;6.03;1.30;;;;;;;3.85;100.00;91861.69;2111994;28;20441;-80
2024/01/06 01:57:37;;;;;;;6.63;1.60;;;;;;;3.92;100.00;91860.84;2113453;28;20031;-78
2024/01/06 01:58:39;;;;;;;4.88;1.73;;;;;;;3.84;100.00;91867.41;2113038;28;20047;-79
2024/01/06 01:59:40;;;;;;;2.60;1.30;;;;;;;3.95;100.00;91867.94;2112896;28;20024;-77
2024/01/06 02:02:38;;;;;;;4.70;1.20;;;;;;;3.83;100.00;91866.66;2106348;28;20515;-79
2024/01/06 02:03:43;;;;;;;2.88;1.60;;;;;;;3.90;100.00;91871.81;2095660;28;20088;-79
2024/01/06 02:04:45;;;;;;;1.83;1.40;;;;;;;3.88;100.00;91866.19;2084747;28;20067;-78
2024/01/06 02:05:46;;;;;;;1.77;1.23;;;;;;;3.86;100.00;91865.81;2104798;28;20084;-79
2024/01/06 02:06:47;;;;;;;9.52;1.60;;;;;;;3.84;100.00;91862.13;2112838;28;20062;-78
2024/01/06 02:07:50;;;;;;;3.58;1.60;;;;;;;3.89;100.00;91870.31;2102480;28;20066;-82
2024/01/06 02:08:51;;;;;;;3.95;1.20;;;;;;;3.85;100.00;91866.25;2101449;28;20031;-80
2024/01/06 02:09:52;;;;;;;5.13;1.27;;;;;;;3.86;100.00;91857.91;2095905;28;20028;-78
2024/01/06 02:10:56;;;;;;;7.78;1.20;;;;;;;3.76;100.00;91867.50;2087694;28;20056;-81
2024/01/06 02:11:58;;;;;;;1.73;1.05;;;;;;;3.78;100.00;91857.28;2092363;28;20083;-80
2024/01/06 02:13:08;;;;;;;4.63;1.25;;;;;;;3.88;100.00;91863.53;2108531;28;20440;-81
2024/01/06 02:14:09;;;;;;;;;;;;;;;3.94;100.00;91863.81;2097407;28;20036;-79
2024/01/06 02:15:09;;;;;;;3.35;1.02;;;;;;;3.95;100.00;91863.44;2091330;28;20326;-80
2024/01/06 02:16:10;;;;;;;2.58;1.13;;;;;;;3.90;100.00;91866.53;2100569;28;20082;-80
2024/01/06 02:17:11;;;;;;;3.50;1.35;;;;;;;3.83;100.00;91857.97;2107974;28;20035;-80
2024/01/06 02:18:12;;;;;;;3.08;1.30;;;;;;;3.82;100.00;91867.81;2091251;28;20040;-79
2024/01/06 02:19:16;;;;;;;3.80;1.10;;;;;;;3.74;100.00;91861.16;2086572;28;20044;-79
2024/01/06 02:20:19;;;;;;;4.35;1.48;;;;;;;3.81;100.00;91862.91;2095937;28;20032;-79
2024/01/06 02:21:22;;;;;;;4.18;1.27;;;;;;;3.91;100.00;91860.09;2104908;28;20431;-80
2024/01/06 02:22:23;;;;;;;4.50;1.20;;;;;;;3.84;100.00;91860.22;2096396;28;20076;-79
2024/01/06 02:25:29;;;;;;;;;;;;;;;2.92;100.00;91865.75;2144268;27;20109;-80
2024/01/06 02:26:30;;;;;;;4.85;1.02;;;;;;;2.90;100.00;91864.66;2115666;28;19915;-81
2024/01/06 02:27:31;;;;;;;6.35;1.30;;;;;;;2.89;100.00;91865.78;2103025;28;20039;-80
2024/01/06 02:28:32;;;;;;;3.08;1.00;;;;;;;2.79;100.00;91867.44;2112484;28;20514;-81
2024/01/06 02:29:33;;;;;;;4.28;1.35;;;;;;;3.03;100.00;91869.00;2108317;28;20024;-80
2024/01/06 02:30:34;;;;;;;4.07;1.50;;;;;;;3.01;100.00;91867.91;2094471;28;20032;-80
2024/01/06 02:31:35;;;;;;;3.53;1.48;;;;;;;2.96;100.00;91863.81;2093667;28;20646;-80
2024/01/06 02:32:36;;;;;;;3.90;1.15;;;;;;;2.95;100.00;91874.78;2112138;27;20108;-81
2024/01/06 02:33:37;;;;;;;3.70;1.33;;;;;;;2.96;100.00;91870.97;2114182;28;20106;-81
2024/01/06 02:34:38;;;;;;;2.78;1.20;;;;;;;2.94;100.00;91868.75;2101259;28;20028;-81
2024/01/06 02:35:40;;;;;;;5.13;1.40;;;;;;;2.93;100.00;91866.50;2107248;28;20048;-79
2024/01/06 02:36:41;;;;;;;5.38;1.40;;;;;;;2.78;100.00;91869.31;2119747;27;20455;-82
2024/01/06 02:37:42;;;;;;;3.35;1.33;;;;;;;2.92;100.00;91865.75;2111437;28;20031;-79
2024/01/06 02:38:43;;;;;;;2.95;1.15;;;;;;;2.80;100.00;91868.91;2111496;28;20055;-81
2024/01/06 02:39:43;;;;;;;4.55;1.00;;;;;;;2.96;100.00;91870.97;2120011;27;20573;-81
2024/01/06 02:40:44;;;;;;;2.90;1.20;;;;;;;2.91;100.00;91871.44;2125150;27;20104;-80
2024/01/06 02:41:45;;;;;;;3.00;1.20;;;;;;;2.86;100.00;91872.63;2111624;28;20118;-81
2024/01/06 02:42:46;;;;;;;2.33;1.17;;;;;;;3.02;100.00;91867.47;2095108;28;20021;-79
2024/01/06 02:43:47;;;;;;;2.38;1.23;;;;;;;3.00;100.00;91864.50;2101875;28;20043;-80
2024/01/06 02:44:48;;;;;;;3.45;1.35;;;;;;;3.11;100.00;91860.97;2119767;28;20039;-80
2024/01/06 02:45:49;;;;;;;5.82;1.75;;;;;;;3.15;100.00;91861.66;2111699;28;20085;-81
2024/01/06 02:46:50;;;;;;;3.00;1.30;;;;;;;3.11;100.00;91866.25;2111563;28;20122;-81
2024/01/06 02:47:51;;;;;;;2.65;0.95;;;;;;;3.26;100.00;91862.28;2111396;28;20044;-79
2024/01/06 02:48:52;;;;;;;3.63;1.70;;;;;;;2.92;100.00;91865.75;2115051;27;20030;-80
2024/01/06 02:49:53;;;;;;;4.70;1.27;;;;;;;3.08;100.00;91870.44;2124735;27;20034;-81
2024/01/06 02:50:54;;;;;;;5.38;1.23;;;;;;;3.01;100.00;91871.28;2108694;28;20041;-79
2024/01/06 02:51:55;;;;;;;5.05;1.40;;;;;;;3.12;100.00;91871.16;2104124;28;20032;-79
2024/01/06 02:52:56;;;;;;;4.80;1.40;;;;;;;2.93;100.00;91866.50;2111055;28;20023;-82
2024/01/06 02:53:57;;;;;;;3.80;1.20;;;;;;;2.91;100.00;91866.91;2108332;28;20463;-79
2024/01/06 02:54:58;;;;;;;5.13;1.40;;;;;;;2.90;100.00;91869.94;2109445;28;20112;-83
2024/01/06 02:55:59;;;;;;;1.90;1.13;;;;;;;2.87;100.00;91865.44;2106620;28;20024;-79
2024/01/06 02:57:00;;;;;;;3.28;1.80;;;;;;;2.91;100.00;91866.16;2098732;28;20048;-79
2024/01/06 02:58:01;;;;;;;5.57;2.03;;;;;;;2.84;100.00;91866.97;2103051;28;20028;-80
2024/01/06 02:59:02;;;;;;;6.18;1.50;;;;;;;2.85;100.00;91873.75;2111123;28;20039;-81
2024/01/06 03:00:03;;;;;;;5.45;1.65;;;;;;;2.92;100.00;91868.38;2124152;27;20522;-80
2024/01/06 03:01:04;;;;;;;6.45;1.92;;;;;;;2.86;100.00;91867.34;2124067;27;20033;-82
2024/01/06 03:02:06;;;;;;;4.88;1.30;;;;;;;2.87;100.00;91870.72;2104186;28;20418;-80
2024/01/06 03:03:07;;;;;;;3.95;1.38;;;;;;;2.92;100.00;91860.47;2104745;28;20035;-81
2024/01/06 03:04:08;;;;;;;4.18;1.40;;;;;;;2.93;100.00;91863.84;2112532;28;20027;-81
2024/01/06 03:05:10;;;;;;;4.90;1.50;;;;;;;2.95;100.00;91859.69;2119662;27;20442;-83
2024/01/06 03:06:11;;;;;;;8.55;1.60;;;;;;;2.95;100.00;91858.94;2111220;28;20028;-81
2024/01/06 03:07:12;;;;;;;2.72;1.08;;;;;;;2.91;100.00;91864.25;2101935;28;20122;-80
2024/01/06 03:08:13;;;;;;;4.90;1.20;;;;;;;2.84;100.00;91866.97;2098163;28;20043;-80
2024/01/06 03:09:14;;;;;;;2.90;1.05;;;;;;;2.88;100.00;91859.78;2099039;28;20453;-81
2024/01/06 03:10:15;;;;;;;4.15;1.38;;;;;;;3.02;100.00;91864.09;2111568;28;20027;-81
2024/01/06 03:11:16;;;;;;;5.43;1.38;;;;;;;3.02;100.00;91862.22;2119821;27;20023;-81
2024/01/06 03:12:20;;;;;;;7.55;2.83;;;;;;;2.93;100.00;91861.97;2128602;27;20051;-80
2024/01/06 03:13:21;;;;;;;2.97;1.23;;;;;;;2.85;100.00;91870.38;2111175;28;20028;-81
2024/01/06 03:14:21;;;;;;;9.18;2.33;;;;;;;3.03;100.00;91869.00;2094469;28;20028;-80
2024/01/06 03:15:22;;;;;;;4.63;1.30;;;;;;;3.10;100.00;91870.78;2102840;28;20422;-80
2024/01/06 03:16:23;;;;;;;4.57;1.20;;;;;;;2.95;100.00;91866.84;2111497;27;20020;-80
2024/01/06 03:17:24;;;;;;;7.35;1.50;;;;;;;2.81;100.00;91864.38;2111165;28;20101;-80
2024/01/06 03:18:25;;;;;;;6.20;1.15;;;;;;;2.72;100.00;91872.78;2106739;28;20055;-80
2024/01/06 03:19:27;;;;;;;4.13;1.50;;;;;;;2.69;100.00;91866.44;2118658;27;20456;-81
2024/01/06 03:20:28;;;;;;;5.05;1.80;;;;;;;2.51;100.00;91869.28;2119471;28;20383;-81
2024/01/06 03:21:29;;;;;;;2.38;1.23;;;;;;;2.63;100.00;91872.53;2110961;28;20031;-80
2024/01/06 03:22:30;;;;;;;4.80;1.58;;;;;;;2.64;100.00;91874.78;2101491;28;20056;-82
2024/01/06 03:23:31;;;;;;;2.80;1.30;;;;;;;2.64;100.00;91869.50;2100999;28;20059;-81
2024/01/06 03:24:32;;;;;;;4.03;1.30;;;;;;;2.69;100.00;91865.69;2108746;28;20232;-80
2024/01/06 03:25:33;;;;;;;3.70;1.02;;;;;;;2.77;100.00;91869.72;2114533;28;20789;-82
2024/01/06 03:26:34;;;;;;;4.38;1.30;;;;;;;2.80;100.00;91870.81;2102684;28;20032;-79
2024/01/06 03:27:35;;;;;;;5.60;1.20;;;;;;;2.81;100.00;91874.94;2109689;28;20111;-80
2024/01/06 03:28:36;;;;;;;3.95;1.20;;;;;;;2.72;100.00;91864.88;2117087;28;20028;-80
2024/01/06 03:29:37;;;;;;;7.35;1.30;;;;;;;2.64;100.00;91858.22;2107895;28;20028;-79
2024/01/06 03:30:38;;;;;;;3.78;1.02;;;;;;;2.75;100.00;91864.84;2100383;28;20040;-82
2024/01/06 03:31:42;;;;;;;3.17;1.20;;;;;;;2.71;100.00;91866.78;2101554;28;20130;-81
2024/01/06 03:32:45;;;;;;;4.68;1.23;;;;;;;2.87;100.00;91865.44;2111175;27;20020;-81
2024/01/06 03:33:46;;;;;;;4.93;1.05;;;;;;;2.78;100.00;91864.06;2107427;28;20027;-80
2024/01/06 03:34:47;;;;;;;4.95;1.20;;;;;;;2.71;100.00;91869.41;2102611;28;20127;-80
2024/01/06 03:35:48;;;;;;;3.80;1.38;;;;;;;2.68;100.00;91864.94;2119660;27;20027;-79
2024/01/06 03:36:49;;;;;;;5.90;1.65;;;;;;;2.66;100.00;91871.75;2112564;28;20023;-80
2024/01/06 03:37:50;;;;;;;4.95;1.42;;;;;;;2.66;100.00;91861.19;2113908;28;20062;-78
2024/01/06 03:38:51;;;;;;;8.55;1.38;;;;;;;2.62;100.00;91878.94;2104572;28;20023;-80
2024/01/06 03:39:52;;;;;;;3.35;1.02;;;;;;;2.87;100.00;91870.72;2098049;28;20591;-79
2024/01/06 03:40:53;;;;;;;4.90;1.13;;;;;;;2.84;100.00;91864.34;2104344;28;20370;-81
2024/01/06 03:41:54;;;;;;;2.47;1.20;;;;;;;2.74;100.00;91868.63;2106685;28;20023;-80
2024/01/06 03:42:55;;;;;;;6.25;1.40;;;;;;;2.66;100.00;91871.75;2113296;28;20554;-80
2024/01/06 03:43:56;;;;;;;2.95;1.10;;;;;;;2.65;100.00;91862.34;2111127;28;20080;-80
2024/01/06 03:44:57;;;;;;;3.53;1.55;;;;;;;2.58;100.00;91868.44;2108804;28;20489;-80
2024/01/06 03:46:00;;;;;;;6.18;1.20;;;;;;;2.74;100.00;91858.06;2089906;28;20068;-81
2024/01/06 03:47:01;;;;;;;2.53;1.17;;;;;;;2.77;100.00;91869.72;2094680;28;20063;-81
2024/01/06 03:48:02;;;;;;;4.88;1.10;;;;;;;2.67;100.00;91865.31;2100780;28;20036;-82
2024/01/06 03:49:03;;;;;;;4.10;1.13;;;;;;;2.71;100.00;91868.66;2102453;28;20131;-80
2024/01/06 03:50:04;;;;;;;3.72;1.10;;;;;;;2.62;100.00;91871.78;2104953;28;20034;-82
2024/01/06 03:51:06;;;;;;;4.82;1.15;;;;;;;2.57;100.00;91871.47;2105434;28;20032;-82
2024/01/06 03:52:07;;;;;;;3.67;1.40;;;;;;;2.54;100.00;91873.00;2108784;28;20020;-82
2024/01/06 03:53:08;;;;;;;8.98;1.40;;;;;;;2.46;100.00;91874.25;2113851;28;20037;-80
2024/01/06 03:54:09;;;;;;;6.18;1.30;;;;;;;2.51;100.00;91871.94;2112675;28;20145;-79
2024/01/06 03:55:10;;;;;;;5.65;1.25;;;;;;;2.48;100.00;91872.72;2102343;28;20536;-81
2024/01/06 03:56:13;;;;;;;6.20;1.10;;;;;;;2.53;100.00;91867.00;2104839;28;20035;-79
2024/01/06 03:57:14;;;;;;;6.40;1.33;;;;;;;2.52;100.00;91870.78;2100568;28;20024;-80
2024/01/06 03:58:15;;;;;;;3.25;1.13;;;;;;;2.68;100.00;91864.19;2088774;28;20016;-80
2024/01/06 03:59:16;;;;;;;2.65;1.00;;;;;;;2.66;100.00;91859.31;2096777;28;20055;-81
2024/01/06 04:00:17;;;;;;;3.10;1.08;;;;;;;2.73;100.00;91871.66;2092693;28;20269;-79
2024/01/06 04:01:18;;;;;;;4.20;1.20;;;;;;;2.77;100.00;91853.91;2096357;28;20016;-81
2024/01/06 04:02:19;;;;;;;3.83;1.10;;;;;;;2.82;100.00;91863.25;2101343;28;20027;-80
2024/01/06 04:03:20;;;;;;;2.47;1.00;;;;;;;2.76;100.00;91861.03;2102884;28;20354;-80
2024/01/06 04:04:27;;;;;;;2.83;1.20;;;;;;;2.82;100.00;91868.53;2101370;28;20404;-80
2024/01/06 04:05:28;;;;;;;3.83;1.17;;;;;;;2.61;100.00;91874.81;2097252;28;20016;-80
2024/01/06 04:06:29;;;;;;;4.93;1.45;;;;;;;2.66;100.00;91874.38;2091316;28;20383;-80
2024/01/06 04:07:30;;;;;;;2.33;1.10;;;;;;;2.62;100.00;91871.78;2088767;28;20029;-81
2024/01/06 04:08:31;;;;;;;3.92;1.20;;;;;;;2.69;100.00;91873.59;2086558;28;20024;-80
2024/01/06 04:09:32;;;;;;;3.72;1.00;;;;;;;2.75;100.00;91869.38;2084568;28;20029;-80
2024/01/06 04:10:33;;;;;;;5.97;1.33;;;;;;;2.65;100.00;91881.56;2082040;28;20033;-81
2024/01/06 04:11:34;;;;;;;3.03;0.90;;;;;;;2.74;100.00;91868.63;2095745;28;20335;-80
2024/01/06 04:12:35;;;;;;;2.53;1.00;;;;;;;2.62;100.00;91873.69;2108336;28;20377;-80
2024/01/06 04:13:36;;;;;;;5.40;1.20;;;;;;;2.71;100.00;91876.56;2108218;28;20480;-81
2024/01/06 04:14:37;;;;;;;4.22;1.20;;;;;;;2.80;100.00;91868.91;2091729;28;20640;-81
2024/01/06 04:15:38;;;;;;;6.25;1.10;;;;;;;2.75;100.00;91870.09;2088080;28;20052;-81
2024/01/06 04:16:39;;;;;;;4.25;0.95;;;;;;;2.59;100.00;91869.97;2100016;28;20032;-79
2024/01/06 04:17:40;;;;;;;4.32;1.40;;;;;;;2.65;100.00;91872.91;2103456;28;20032;-83
2024/01/06 04:18:41;;;;;;;3.83;1.00;;;;;;;2.73;100.00;91879.59;2102755;28;20476;-81
2024/01/06 04:19:42;;;;;;;1.85;0.90;;;;;;;2.67;100.00;91875.88;2102082;28;20483;-80
2024/01/06 04:20:43;;;;;;;1.40;0.90;;;;;;;2.61;100.00;91886.13;2101468;28;20577;-80
2024/01/06 04:21:44;;;;;;;2.45;1.20;;;;;;;2.52;100.00;91876.06;2096223;28;20040;-79
2024/01/06 04:22:45;;;;;;;1.75;0.90;;;;;;;2.58;100.00;91878.25;2105113;28;20036;-80
2024/01/06 04:23:46;;;;;;;5.53;1.08;;;;;;;2.51;100.00;91879.84;2094433;28;20035;-79
2024/01/06 04:24:47;;;;;;;6.32;1.10;;;;;;;2.49;100.00;91882.09;2090546;28;20036;-80
2024/01/06 04:25:48;;;;;;;5.28;1.20;;;;;;;2.44;100.00;91881.81;2094541;28;20051;-80
2024/01/06 04:26:49;;;;;;;6.18;0.95;;;;;;;2.49;100.00;91884.00;2088361;28;20112;-80
2024/01/06 04:27:50;;;;;;;7.88;1.50;;;;;;;2.66;100.00;91888.31;2087484;28;20029;-80
2024/01/06 04:28:51;;;;;;;5.38;1.00;;;;;;;2.67;100.00;91886.41;2097980;28;20028;-81
2024/01/06 04:29:53;;;;;;;3.22;0.90;;;;;;;2.49;100.00;91889.28;2109276;28;20028;-79
2024/01/06 04:30:54;;;;;;;2.42;1.08;;;;;;;2.64;100.00;91880.06;2119698;27;20019;-79
2024/01/06 04:31:54;;;;;;;3.83;1.00;;;;;;;2.63;100.00;91883.09;2121972;27;20019;-83
2024/01/06 04:32:57;;;;;;;2.97;1.15;;;;;;;2.67;100.00;91886.41;2110674;28;20135;-79
2024/01/06 04:33:58;;;;;;;4.57;0.98;;;;;;;2.45;100.00;91891.19;2110800;28;20475;-81
2024/01/06 04:34:59;;;;;;;3.85;0.93;;;;;;;2.39;100.00;91893.53;2113039;28;20023;-81
2024/01/06 04:36:01;;;;;;;5.35;1.00;;;;;;;2.45;100.00;91888.56;2105002;28;20488;-79
2024/01/06 04:37:02;;;;;;;3.38;1.02;;;;;;;2.40;100.00;91889.75;2096682;28;20034;-80
2024/01/06 04:38:03;;;;;;;2.67;1.00;;;;;;;2.37;100.00;91885.28;2104920;28;20468;-80
2024/01/06 04:39:04;;;;;;;2.13;1.38;;;;;;;2.49;100.00;91887.38;2110585;28;20066;-79
2024/01/06 04:40:06;;;;;;;1.90;0.90;;;;;;;2.50;100.00;91877.56;2107912;28;20066;-79
2024/01/06 04:41:07;;;;;;;1.95;0.80;;;;;;;2.47;100.00;91878.38;2110199;28;20092;-82
2024/01/06 04:42:08;;;;;;;6.80;1.50;;;;;;;2.42;100.00;91873.56;2091295;28;20157;-79
2024/01/06 04:43:09;;;;;;;5.40;1.23;;;;;;;2.38;100.00;91873.59;2104524;28;20056;-81
2024/01/06 04:44:10;;;;;;;3.45;1.00;;;;;;;2.42;100.00;91884.09;2100293;28;20573;-79
2024/01/06 04:45:10;;;;;;;3.47;0.98;;;;;;;2.35;100.00;91873.63;2096925;28;20499;-78
2024/01/06 04:46:11;;;;;;;5.00;1.20;;;;;;;2.38;100.00;91884.13;2083929;28;20385;-79
2024/01/06 04:47:12;;;;;;;5.10;1.13;;;;;;;2.37;100.00;91889.78;2092546;28;20048;-79
2024/01/06 04:48:13;;;;;;;4.60;1.20;;;;;;;2.54;100.00;91886.19;2099045;28;20055;-80
2024/01/06 04:49:14;;;;;;;3.80;1.02;;;;;;;2.60;100.00;91886.53;2112827;28;20030;-79
2024/01/06 04:50:16;;;;;;;5.20;1.05;;;;;;;2.69;100.00;91889.44;2122163;27;20075;-79
2024/01/06 04:51:17;;;;;;;5.88;1.42;;;;;;;2.69;100.00;91884.91;2112925;28;20051;-79
2024/01/06 04:52:17;;;;;;;3.97;1.23;;;;;;;2.57;100.00;91884.66;2104241;28;20031;-81
2024/01/06 04:53:19;;;;;;;3.47;1.20;;;;;;;2.58;100.00;91886.16;2109004;28;20024;-80
2024/01/06 04:54:20;;;;;;;2.35;0.95;;;;;;;2.59;100.00;91883.16;2094899;28;20082;-81
2024/01/06 04:55:21;;;;;;;1.30;0.80;;;;;;;2.38;100.00;91881.50;2101070;28;20020;-80
2024/01/06 04:56:22;;;;;;;1.35;0.85;;;;;;;2.44;100.00;91881.81;2111760;28;20088;-78
2024/01/06 04:57:23;;;;;;;4.10;1.27;;;;;;;2.44;100.00;91889.72;2105193;28;20031;-79